Time;durP1;ratioP1;P1;durP2;ratioP2;P2;SDS_P1;SDS_P2;PMS_P1;PMS_P2;Temp;Humidity;BMP_temperature;BMP_pressure;BME280_temperature;BME280_humidity;BME280_pressure;Samples;Min_cycle;Max_cycle;Signal;HPM_P1;HPM_P2
2021/12/30 00:01:21;;;;;;;38.95;24.88;;;282.10;2278.40;;;;;;5034733;28;20087;-67
2021/12/30 00:03:48;;;;;;;38.50;25.67;;;282.10;2278.40;;;;;;5033025;28;20033;-69
2021/12/30 00:06:17;;;;;;;36.20;26.00;;;282.10;2278.40;;;;;;5034239;28;20104;-69
2021/12/30 00:08:44;;;;;;;29.85;20.27;;;282.10;2278.40;;;;;;5034508;28;20104;-68
2021/12/30 00:11:10;;;;;;;31.48;21.13;;;282.10;2278.40;;;;;;5034306;28;20124;-68
2021/12/30 00:13:36;;;;;;;27.05;19.77;;;282.00;2278.40;;;;;;5034534;28;20120;-67
2021/12/30 00:16:02;;;;;;;28.55;18.70;;;282.00;2278.40;;;;;;5034262;28;20032;-68
2021/12/30 00:18:28;;;;;;;27.33;18.13;;;282.00;2278.40;;;;;;5034053;28;20112;-69
2021/12/30 00:20:54;;;;;;;23.15;17.23;;;282.00;2278.40;;;;;;5034171;28;20080;-66
2021/12/30 00:23:20;;;;;;;23.20;17.23;;;;;;;;;;5034113;28;20033;-67
2021/12/30 00:25:48;;;;;;;26.42;19.30;;;282.10;2278.40;;;;;;5033881;28;20022;-68
2021/12/30 00:28:23;;;;;;;23.23;17.73;;;282.00;2278.40;;;;;;5034007;28;20034;-68
2021/12/30 00:30:51;;;;;;;22.08;15.38;;;282.00;2278.40;;;;;;5033807;28;20045;-68
2021/12/30 00:33:17;;;;;;;24.33;16.02;;;282.00;2278.40;;;;;;5033550;28;20480;-67
2021/12/30 00:35:43;;;;;;;23.05;16.48;;;282.00;2278.40;;;;;;5033914;28;20163;-69
2021/12/30 00:38:09;;;;;;;26.70;18.20;;;282.00;2278.40;;;;;;5033758;28;20112;-65
2021/12/30 00:40:37;;;;;;;25.85;18.58;;;282.00;2278.40;;;;;;5033730;28;20096;-66
2021/12/30 00:43:03;;;;;;;27.90;18.63;;;282.00;2278.40;;;;;;5032280;28;20400;-68
2021/12/30 00:45:31;;;;;;;26.52;18.50;;;282.10;2278.40;;;;;;5033543;28;20502;-67
2021/12/30 00:47:57;;;;;;;23.63;17.58;;;282.00;2278.40;;;;;;5032010;28;20038;-67
2021/12/30 00:50:24;;;;;;;26.05;17.15;;;282.00;2278.40;;;;;;5033538;28;20559;-67
2021/12/30 00:52:50;;;;;;;23.92;17.13;;;282.10;2278.40;;;;;;5033497;28;20041;-67
2021/12/30 00:55:16;;;;;;;24.58;18.20;;;282.00;2278.40;;;;;;5033741;28;20035;-67
2021/12/30 00:57:42;;;;;;;19.92;14.57;;;282.10;2278.40;;;;;;5033386;28;20555;-68
2021/12/30 01:00:13;;;;;;;21.83;16.30;;;282.10;2278.40;;;;;;5033643;28;20034;-68
2021/12/30 01:02:39;;;;;;;26.33;17.25;;;282.10;2278.40;;;;;;5033029;28;20032;-68
2021/12/30 01:05:06;;;;;;;24.70;16.90;;;282.10;2278.40;;;;;;5033367;28;20017;-69
2021/12/30 01:07:32;;;;;;;23.50;18.02;;;282.00;2278.40;;;;;;5033320;28;20431;-68
2021/12/30 01:09:59;;;;;;;23.13;16.60;;;282.00;2278.40;;;;;;5031990;28;20036;-68
2021/12/30 01:12:25;;;;;;;21.48;15.77;;;281.90;2278.40;;;;;;5033186;28;20041;-68
2021/12/30 01:14:50;;;;;;;21.50;15.75;;;281.90;2278.40;;;;;;5033518;28;20024;-69
2021/12/30 01:17:26;;;;;;;23.20;16.42;;;281.90;2278.40;;;;;;5032596;28;20068;-68
2021/12/30 01:19:52;;;;;;;24.08;17.45;;;282.00;2278.40;;;;;;5033193;28;20079;-69
2021/12/30 01:22:26;;;;;;;30.27;20.25;;;282.00;2278.40;;;;;;5032988;28;20061;-69
2021/12/30 01:24:53;;;;;;;26.70;19.48;;;282.00;2278.40;;;;;;5031659;28;20025;-68
2021/12/30 01:27:20;;;;;;;27.25;19.95;;;282.00;2278.40;;;;;;5033475;28;20032;-68
2021/12/30 01:29:47;;;;;;;29.42;20.55;;;282.10;2278.40;;;;;;5032724;28;20105;-68
2021/12/30 01:32:13;;;;;;;29.95;21.48;;;282.10;2278.40;;;;;;5032623;28;20053;-68
2021/12/30 01:34:39;;;;;;;32.90;20.88;;;282.10;2278.40;;;;;;5032942;28;20100;-68
2021/12/30 01:37:05;;;;;;;30.70;19.90;;;282.10;2278.40;;;;;;5033121;28;20365;-69
2021/12/30 01:39:36;;;;;;;30.13;19.63;;;282.10;2278.40;;;;;;5032843;28;20021;-67
2021/12/30 01:42:04;;;;;;;30.17;19.67;;;282.10;2278.40;;;;;;5032930;28;20176;-68
2021/12/30 01:44:29;;;;;;;30.73;19.02;;;282.10;2278.40;;;;;;5032733;28;20025;-68
2021/12/30 01:46:56;;;;;;;28.05;19.20;;;282.10;2278.40;;;;;;5031530;28;20029;-68
2021/12/30 01:49:23;;;;;;;29.13;21.38;;;282.20;2278.40;;;;;;5032819;28;20059;-68
2021/12/30 01:51:49;;;;;;;29.05;19.65;;;282.20;2278.40;;;;;;5032771;28;20030;-68
2021/12/30 01:54:16;;;;;;;28.95;19.77;;;282.10;2278.40;;;;;;5033019;28;20017;-68
2021/12/30 01:56:41;;;;;;;30.17;19.42;;;282.10;2278.40;;;;;;5032741;28;20022;-68
2021/12/30 01:59:08;;;;;;;30.23;19.20;;;282.10;2278.40;;;;;;5032653;28;20056;-65
2021/12/30 02:01:34;;;;;;;32.00;19.63;;;282.10;2278.40;;;;;;5032930;28;20120;-68
2021/12/30 02:04:00;;;;;;;31.10;19.75;;;282.20;2278.40;;;;;;5032624;28;20049;-68
2021/12/30 02:06:27;;;;;;;31.67;21.35;;;282.10;2278.40;;;;;;5032651;28;20036;-68
2021/12/30 02:08:53;;;;;;;32.80;21.75;;;282.10;2278.40;;;;;;5033051;28;20022;-68
2021/12/30 02:11:20;;;;;;;30.98;21.65;;;282.20;2278.40;;;;;;5032985;28;20034;-68
2021/12/30 02:13:52;;;;;;;34.55;23.17;;;282.20;2278.40;;;;;;5032589;28;20025;-68
2021/12/30 02:16:20;;;;;;;34.15;22.88;;;282.30;2278.40;;;;;;5032507;28;20079;-68
2021/12/30 02:18:46;;;;;;;29.83;21.58;;;282.30;2278.40;;;;;;5032368;28;20056;-67
2021/12/30 02:21:12;;;;;;;35.90;22.45;;;282.30;2278.40;;;;;;5032552;28;20057;-68
2021/12/30 02:23:39;;;;;;;32.85;22.75;;;282.40;2278.40;;;;;;5032591;28;20411;-68
2021/12/30 02:26:14;;;;;;;38.15;26.27;;;282.40;2278.40;;;;;;5032358;28;20022;-68
2021/12/30 02:28:41;;;;;;;38.35;26.33;;;282.40;2278.40;;;;;;5032375;28;20068;-68
2021/12/30 02:31:15;;;;;;;34.30;22.67;;;282.40;2278.40;;;;;;5034621;28;20147;-68
2021/12/30 02:33:42;;;;;;;29.73;21.17;;;282.30;2278.40;;;;;;5036151;28;20025;-68
2021/12/30 02:36:08;;;;;;;31.77;22.85;;;282.30;2278.40;;;;;;5036435;28;20029;-67
2021/12/30 02:38:35;;;;;;;37.30;25.45;;;282.40;2278.40;;;;;;5036123;28;20427;-68
2021/12/30 02:41:03;;;;;;;40.22;28.83;;;282.30;2278.40;;;;;;5036030;28;20087;-68
2021/12/30 02:43:31;;;;;;;36.38;26.63;;;282.40;2278.40;;;;;;5035831;28;20041;-68
2021/12/30 02:45:59;;;;;;;40.10;27.40;;;282.40;2278.40;;;;;;5035964;28;20114;-68
2021/12/30 02:48:28;;;;;;;39.33;26.42;;;282.40;2278.40;;;;;;5035848;28;20037;-68
2021/12/30 02:50:57;;;;;;;36.75;25.10;;;282.40;2278.40;;;;;;5035864;28;20021;-69
2021/12/30 02:53:23;;;;;;;37.38;27.55;;;282.40;2278.40;;;;;;5035682;28;20112;-69
2021/12/30 02:55:53;;;;;;;38.42;26.35;;;282.40;2278.40;;;;;;5035799;28;20380;-69
2021/12/30 02:58:23;;;;;;;33.53;24.42;;;282.40;2278.40;;;;;;5035956;28;20025;-68
2021/12/30 03:00:50;;;;;;;34.45;24.75;;;282.40;2278.40;;;;;;5035788;28;20026;-69
2021/12/30 03:03:18;;;;;;;34.38;24.08;;;282.40;2278.40;;;;;;5035445;28;20020;-68
2021/12/30 03:05:44;;;;;;;35.78;26.05;;;282.40;2278.40;;;;;;5035587;28;20443;-67
2021/12/30 03:08:10;;;;;;;36.45;26.02;;;282.40;2278.40;;;;;;5035430;28;20048;-67
2021/12/30 03:10:36;;;;;;;33.42;24.85;;;282.50;2278.40;;;;;;5035361;28;20064;-68
2021/12/30 03:13:09;;;;;;;32.15;23.90;;;282.50;2278.40;;;;;;5035436;28;20057;-68
2021/12/30 03:15:36;;;;;;;32.15;23.80;;;282.50;2278.40;;;;;;5035389;28;20060;-68
2021/12/30 03:18:03;;;;;;;31.73;22.92;;;282.50;2278.40;;;;;;5035290;28;20014;-69
2021/12/30 03:20:33;;;;;;;31.77;22.42;;;282.50;2278.40;;;;;;5035294;28;20030;-68
2021/12/30 03:22:59;;;;;;;33.47;22.67;;;282.50;2278.40;;;;;;5035176;28;20029;-65
2021/12/30 03:25:24;;;;;;;37.20;25.17;;;282.50;2278.40;;;;;;5034943;28;20029;-68
2021/12/30 03:27:50;;;;;;;38.30;25.10;;;282.50;2278.40;;;;;;5035253;28;20098;-68
2021/12/30 03:30:17;;;;;;;32.13;22.70;;;307.20;2304.00;;;;;;5035020;28;20057;-68
2021/12/30 03:32:43;;;;;;;35.15;24.42;;;282.50;2278.40;;;;;;5034947;28;20033;-68
2021/12/30 03:35:09;;;;;;;29.65;22.98;;;282.50;2278.40;;;;;;5035047;28;20029;-68
2021/12/30 03:37:36;;;;;;;31.83;22.05;;;282.50;2278.40;;;;;;5035138;28;20022;-68
2021/12/30 03:40:03;;;;;;;30.52;19.55;;;282.50;2278.40;;;;;;5034784;28;20026;-68
2021/12/30 03:42:28;;;;;;;29.48;20.25;;;282.50;2278.40;;;;;;5034457;28;20029;-69
2021/12/30 03:44:57;;;;;;;30.88;20.40;;;282.40;2278.40;;;;;;5035113;28;20021;-69
2021/12/30 03:47:23;;;;;;;27.38;20.67;;;282.40;2278.40;;;;;;5034829;28;20424;-69
2021/12/30 03:49:49;;;;;;;27.67;20.48;;;282.30;2278.40;;;;;;5034695;28;20057;-69
2021/12/30 03:52:21;;;;;;;23.48;17.75;;;282.30;2278.40;;;;;;5034655;28;20061;-68
2021/12/30 03:54:47;;;;;;;26.25;20.10;;;282.30;2278.40;;;;;;5034579;28;20022;-67
2021/12/30 03:57:13;;;;;;;25.45;18.80;;;282.30;2278.40;;;;;;5034655;28;20033;-69
2021/12/30 03:59:39;;;;;;;23.38;18.38;;;282.30;2278.40;;;;;;5034675;28;20400;-69
2021/12/30 04:02:05;;;;;;;24.65;19.13;;;282.30;2278.40;;;;;;5034642;28;20025;-68
2021/12/30 04:04:31;;;;;;;26.05;19.90;;;282.30;2278.40;;;;;;5034440;28;20385;-69
2021/12/30 04:06:57;;;;;;;23.20;18.15;;;282.30;2278.40;;;;;;5034490;28;20446;-68
2021/12/30 04:09:22;;;;;;;28.55;21.38;;;282.40;2278.40;;;;;;5034167;28;20025;-68
2021/12/30 04:11:48;;;;;;;27.80;20.83;;;282.40;2278.40;;;;;;5034147;28;20078;-68
2021/12/30 04:14:14;;;;;;;28.92;21.83;;;282.40;2278.40;;;;;;5034345;28;20025;-69
2021/12/30 04:16:40;;;;;;;27.70;22.40;;;282.40;2278.40;;;;;;5034425;28;20053;-68
2021/12/30 04:19:06;;;;;;;29.10;21.35;;;282.40;2278.40;;;;;;5034279;28;20033;-68
2021/12/30 04:21:32;;;;;;;28.95;20.98;;;282.40;2278.40;;;;;;5032940;28;20483;-68
2021/12/30 04:23:58;;;;;;;24.92;19.38;;;282.40;2278.40;;;;;;5034171;28;20115;-68
2021/12/30 04:26:24;;;;;;;31.92;23.20;;;282.40;2278.40;;;;;;5033841;28;20151;-70
2021/12/30 04:28:50;;;;;;;31.40;23.25;;;282.40;2278.40;;;;;;5034100;28;20088;-69
2021/12/30 04:31:16;;;;;;;28.65;21.17;;;282.30;2278.40;;;;;;5033681;28;20128;-67
2021/12/30 04:33:42;;;;;;;30.73;23.42;;;282.30;2278.40;;;;;;5033770;28;20036;-68
2021/12/30 04:36:09;;;;;;;31.23;23.23;;;282.30;2278.40;;;;;;5033810;28;20511;-67
2021/12/30 04:38:36;;;;;;;33.03;25.23;;;282.30;2278.40;;;;;;5033920;28;20037;-68
2021/12/30 04:41:03;;;;;;;36.40;24.75;;;282.30;2278.40;;;;;;5033810;28;20097;-68
2021/12/30 04:43:29;;;;;;;27.10;21.48;;;282.20;2278.40;;;;;;5033688;28;20025;-67
2021/12/30 04:45:55;;;;;;;29.98;21.80;;;282.30;2278.40;;;;;;5033730;28;20018;-68
2021/12/30 04:48:22;;;;;;;27.67;21.75;;;282.20;2278.40;;;;;;5033488;28;20480;-68
2021/12/30 04:50:48;;;;;;;30.52;22.38;;;282.20;2278.40;;;;;;5033601;28;20025;-68
2021/12/30 04:53:16;;;;;;;32.10;22.38;;;282.20;2278.40;;;;;;5032548;28;20065;-68
2021/12/30 04:55:42;;;;;;;31.67;23.45;;;282.20;2278.40;;;;;;5033367;28;20384;-68
2021/12/30 04:58:08;;;;;;;34.00;23.05;;;282.20;2278.40;;;;;;5033331;28;20064;-67
2021/12/30 05:00:34;;;;;;;31.35;23.17;;;282.20;2278.40;;;;;;5033340;28;20053;-66
2021/12/30 05:05:33;;;;;;;103.88;65.60;;;;;;;;;;5033290;28;20029;-67
2021/12/30 05:07:59;;;;;;;67.97;42.33;;;282.10;2278.40;;;;;;5033214;28;20067;-67
2021/12/30 05:10:24;;;;;;;50.75;36.15;;;282.10;2278.40;;;;;;5033072;28;20104;-68
2021/12/30 05:12:50;;;;;;;52.38;37.38;;;282.10;2278.40;;;;;;5033080;28;20036;-68
2021/12/30 05:15:16;;;;;;;50.58;37.55;;;282.10;2278.40;;;;;;5033235;28;20486;-68
2021/12/30 05:17:43;;;;;;;50.55;37.65;;;282.10;2278.40;;;;;;5033308;28;20353;-67
2021/12/30 05:20:10;;;;;;;65.60;46.15;;;282.10;2278.40;;;;;;5032813;28;20013;-68
2021/12/30 05:22:36;;;;;;;69.30;49.70;;;282.00;2278.40;;;;;;5033100;28;20029;-67
2021/12/30 05:25:02;;;;;;;75.32;59.95;;;282.10;2278.40;;;;;;5032701;28;20049;-67
2021/12/30 05:27:28;;;;;;;64.45;48.42;;;282.10;2278.40;;;;;;5032886;28;20065;-67
2021/12/30 05:29:53;;;;;;;62.10;45.20;;;282.10;2278.40;;;;;;5032876;28;20025;-67
2021/12/30 05:32:19;;;;;;;65.75;47.15;;;282.00;2278.40;;;;;;5032700;28;20045;-65
2021/12/30 05:34:45;;;;;;;61.50;43.47;;;282.00;2278.40;;;;;;5032804;28;20099;-67
2021/12/30 05:37:11;;;;;;;72.00;49.35;;;282.10;2278.40;;;;;;5032754;28;20061;-65
2021/12/30 05:39:41;;;;;;;69.57;50.35;;;282.00;2278.40;;;;;;5032815;28;20026;-66
2021/12/30 05:42:07;;;;;;;63.78;45.17;;;282.00;2278.40;;;;;;5032680;28;20077;-67
2021/12/30 05:44:33;;;;;;;63.53;41.38;;;282.00;2278.40;;;;;;5032920;28;20101;-69
2021/12/30 05:46:58;;;;;;;64.70;42.60;;;282.10;2278.40;;;;;;5032746;28;20056;-67
2021/12/30 05:49:24;;;;;;;65.30;46.05;;;282.10;2278.40;;;;;;5032410;28;20121;-68
2021/12/30 05:51:50;;;;;;;82.85;55.05;;;282.10;2278.40;;;;;;5032608;28;20029;-68
2021/12/30 05:54:16;;;;;;;103.20;64.10;;;282.00;2278.40;;;;;;5032527;28;20026;-68
2021/12/30 05:56:42;;;;;;;87.95;55.17;;;282.10;2278.40;;;;;;5032495;28;20484;-69
2021/12/30 05:59:07;;;;;;;141.27;95.45;;;282.10;2278.40;;;;;;5032637;28;20032;-68
2021/12/30 06:01:33;;;;;;;136.80;96.78;;;282.10;2278.40;;;;;;5032600;28;20037;-68
2021/12/30 06:03:59;;;;;;;101.78;73.68;;;282.10;2278.40;;;;;;5033603;28;20040;-68
2021/12/30 06:06:25;;;;;;;70.68;52.15;;;282.10;2278.40;;;;;;5036525;28;20460;-68
2021/12/30 06:08:51;;;;;;;68.28;49.10;;;282.00;2278.40;;;;;;5036594;28;20387;-68
2021/12/30 06:11:17;;;;;;;67.30;45.97;;;282.00;2278.40;;;;;;5036280;28;20029;-68
2021/12/30 06:13:43;;;;;;;64.95;45.75;;;282.00;2278.40;;;;;;5036447;28;20036;-66
2021/12/30 06:16:09;;;;;;;71.80;48.67;;;281.90;2278.40;;;;;;5035429;28;20025;-69
2021/12/30 06:18:34;;;;;;;66.13;46.33;;;282.00;2278.40;;;;;;5035040;28;20029;-68
2021/12/30 06:21:00;;;;;;;61.88;42.90;;;281.90;2278.40;;;;;;5036482;28;20025;-68
2021/12/30 06:23:26;;;;;;;58.95;42.65;;;;;;;;;;5036183;28;20087;-68
2021/12/30 06:25:52;;;;;;;58.47;39.13;;;;;;;;;;5036024;28;20030;-68
2021/12/30 06:28:18;;;;;;;56.72;37.33;;;;;;;;;;5036050;28;20026;-67
2021/12/30 06:30:44;;;;;;;55.08;35.95;;;;;;;;;;5036021;28;20124;-67
2021/12/30 06:33:11;;;;;;;53.20;38.80;;;;;;;;;;5036155;28;20119;-69
2021/12/30 06:35:37;;;;;;;50.42;35.85;;;;;;;;;;5035907;28;20017;-68
2021/12/30 06:38:03;;;;;;;50.75;34.38;;;;;;;;;;5036223;28;20563;-68
2021/12/30 06:40:30;;;;;;;54.00;36.25;;;;;;;;;;5035956;28;20388;-67
2021/12/30 06:42:56;;;;;;;58.13;39.00;;;;;;;;;;5035876;28;20113;-68
2021/12/30 06:45:22;;;;;;;56.63;37.97;;;;;;;;;;5035770;28;20029;-67
2021/12/30 06:47:48;;;;;;;86.82;54.50;;;;;;;;;;5035735;28;20387;-68
2021/12/30 06:50:15;;;;;;;160.27;104.38;;;;;;;;;;5035818;28;20368;-68
2021/12/30 06:52:42;;;;;;;158.38;100.75;;;;;;;;;;5035582;28;20029;-68
2021/12/30 06:55:08;;;;;;;152.95;100.60;;;;;;;;;;5035966;28;20112;-66
2021/12/30 06:57:34;;;;;;;123.18;83.65;;;;;;;;;;5035328;28;20025;-69
2021/12/30 07:00:01;;;;;;;110.53;79.63;;;282.00;2278.40;;;;;;5035473;28;20112;-62
2021/12/30 07:02:27;;;;;;;117.05;77.30;;;281.90;2278.40;;;;;;5035385;28;20113;-66
2021/12/30 07:04:52;;;;;;;115.28;77.43;;;281.90;2278.40;;;;;;5035435;28;20511;-68
2021/12/30 07:07:18;;;;;;;113.63;77.22;;;281.90;2278.40;;;;;;5035372;28;20025;-67
2021/12/30 07:09:44;;;;;;;105.65;72.35;;;282.00;2278.40;;;;;;5035234;28;20060;-67
2021/12/30 07:12:09;;;;;;;115.78;75.10;;;282.00;2278.40;;;;;;5035098;28;20369;-66
2021/12/30 07:14:35;;;;;;;103.43;71.40;;;282.00;2278.40;;;;;;5035115;28;20022;-68
2021/12/30 07:17:01;;;;;;;95.60;64.85;;;282.00;2278.40;;;;;;5034391;28;20041;-67
2021/12/30 07:19:27;;;;;;;95.68;64.85;;;282.00;2278.40;;;;;;5035203;28;20177;-68
2021/12/30 07:21:52;;;;;;;95.75;68.93;;;282.00;2278.40;;;;;;5035139;28;20033;-68
2021/12/30 07:24:23;;;;;;;103.50;72.75;;;282.00;2278.40;;;;;;5035517;28;20383;-67
2021/12/30 07:26:49;;;;;;;110.93;77.60;;;282.00;2278.40;;;;;;5034991;28;20045;-67
2021/12/30 07:29:15;;;;;;;93.28;62.03;;;282.00;2278.40;;;;;;5034982;28;20068;-66
2021/12/30 07:31:41;;;;;;;86.22;58.75;;;281.90;2278.40;;;;;;5034403;28;20053;-68
2021/12/30 07:34:07;;;;;;;91.53;63.90;;;282.00;2278.40;;;;;;5034802;28;20033;-68
2021/12/30 07:36:33;;;;;;;80.13;53.13;;;282.00;2278.40;;;;;;5034845;28;20096;-68
2021/12/30 07:38:58;;;;;;;99.18;69.55;;;282.20;2278.40;;;;;;5034790;28;20475;-64
2021/12/30 07:41:24;;;;;;;82.80;56.58;;;282.10;2278.40;;;;;;5034872;28;20014;-68
2021/12/30 07:43:50;;;;;;;84.15;58.05;;;;;;;;;;5033268;28;20061;-68
2021/12/30 07:46:16;;;;;;;78.47;55.50;;;;;;;;;;5034508;28;20025;-67
2021/12/30 07:48:43;;;;;;;74.22;54.30;;;;;;;;;;5034749;28;20155;-68
2021/12/30 07:51:09;;;;;;;74.85;53.00;;;;;;;;;;5034606;28;20029;-67
2021/12/30 07:53:35;;;;;;;69.55;49.50;;;;;;;;;;5034443;28;20488;-67
2021/12/30 07:56:02;;;;;;;63.40;44.90;;;;;;;;;;5033147;28;20395;-65
2021/12/30 07:58:28;;;;;;;69.85;49.60;;;;;;;;;;5034199;28;20068;-68
2021/12/30 08:00:54;;;;;;;52.90;38.38;;;;;;;;;;5034718;28;20038;-68
2021/12/30 08:03:20;;;;;;;37.00;27.30;;;;;;;;;;5034278;28;20041;-68
2021/12/30 08:05:48;;;;;;;35.45;26.92;;;;;;;;;;5034309;28;20022;-69
2021/12/30 08:08:14;;;;;;;36.65;26.92;;;;;;;;;;5034280;28;20021;-66
2021/12/30 08:10:40;;;;;;;42.33;30.63;;;;;;;;;;5034209;28;20419;-69
2021/12/30 08:13:06;;;;;;;38.10;30.08;;;;;;;;;;5033926;28;20092;-67
2021/12/30 08:15:32;;;;;;;41.88;32.88;;;;;;;;;;5034116;28;20021;-69
2021/12/30 08:17:58;;;;;;;41.42;31.35;;;;;;;;;;5034186;28;20029;-67
2021/12/30 08:20:27;;;;;;;43.63;32.17;;;;;;;;;;5034216;28;20029;-68
2021/12/30 08:22:53;;;;;;;40.00;29.83;;;;;;;;;;5033816;28;20422;-68
2021/12/30 08:25:19;;;;;;;40.22;31.65;;;;;;;;;;5033684;28;20025;-68
2021/12/30 08:27:46;;;;;;;37.65;30.02;;;;;;;;;;5033639;28;20025;-68
2021/12/30 08:30:13;;;;;;;34.13;24.05;;;;;;;;;;5033571;28;20037;-69
2021/12/30 08:32:51;;;;;;;35.65;26.45;;;;;;;;;;5034881;28;20045;-73
2021/12/30 08:35:20;;;;;;;38.33;28.55;;;;;;;;;;5033649;28;20037;-67
2021/12/30 08:37:47;;;;;;;36.92;28.27;;;;;;;;;;5033579;28;20017;-67
2021/12/30 08:40:14;;;;;;;48.95;38.13;;;;;;;;;;5033496;28;20029;-68
2021/12/30 08:42:41;;;;;;;38.00;28.05;;;;;;;;;;5033302;28;20025;-67
2021/12/30 08:45:07;;;;;;;40.28;30.05;;;;;;;;;;5033435;28;20025;-68
2021/12/30 08:47:33;;;;;;;58.38;51.33;;;;;;;;;;5033409;28;20025;-68
2021/12/30 08:49:59;;;;;;;44.95;35.60;;;;;;;;;;5033429;28;20056;-66
2021/12/30 08:52:27;;;;;;;56.05;44.83;;;;;;;;;;5033620;28;20464;-67
2021/12/30 08:54:53;;;;;;;50.78;38.72;;;;;;;;;;5033370;28;20035;-69
2021/12/30 08:57:20;;;;;;;48.88;34.80;;;;;;;;;;5031698;28;20022;-68
2021/12/30 08:59:46;;;;;;;44.90;32.55;;;;;;;;;;5033206;28;20057;-66
2021/12/30 09:02:12;;;;;;;39.70;31.98;;;;;;;;;;5032978;28;20024;-66
2021/12/30 09:04:42;;;;;;;54.05;42.00;;;;;;;;;;5032886;28;20045;-66
2021/12/30 09:07:09;;;;;;;39.75;29.42;;;;;;;;;;5032980;28;20025;-66
2021/12/30 09:09:35;;;;;;;48.28;35.17;;;;;;;;;;5033004;28;20026;-66
2021/12/30 09:12:01;;;;;;;37.90;30.73;;;;;;;;;;5032712;28;20029;-67
2021/12/30 09:14:27;;;;;;;37.00;26.88;;;;;;;;;;5033019;28;20047;-65
2021/12/30 09:16:54;;;;;;;27.63;22.38;;;;;;;;;;5033046;28;20033;-69
2021/12/30 09:19:20;;;;;;;28.50;22.80;;;;;;;;;;5033185;28;20028;-68
2021/12/30 09:21:46;;;;;;;22.65;18.45;;;;;;;;;;5032724;28;20051;-67
2021/12/30 09:24:12;;;;;;;23.38;17.50;;;;;;;;;;5032768;28;20024;-67
2021/12/30 09:26:39;;;;;;;34.78;25.13;;;;;;;;;;5032466;28;20487;-64
2021/12/30 09:29:11;;;;;;;35.90;24.23;;;;;;;;;;5032613;28;20025;-67
2021/12/30 09:31:41;;;;;;;36.67;28.52;;;;;;;;;;5032740;28;20057;-67
2021/12/30 09:34:07;;;;;;;29.75;22.35;;;;;;;;;;5032652;28;20036;-66
2021/12/30 09:36:33;;;;;;;23.38;18.05;;;;;;;;;;5032620;28;20055;-67
2021/12/30 09:38:59;;;;;;;21.35;16.55;;;;;;;;;;5032152;28;20036;-67
2021/12/30 09:41:26;;;;;;;23.30;17.30;;;;;;;;;;5032708;28;20349;-66
2021/12/30 09:43:52;;;;;;;34.97;25.55;;;;;;;;;;5032812;28;20426;-68
2021/12/30 09:46:18;;;;;;;33.15;23.45;;;;;;;;;;5032593;28;20025;-68
2021/12/30 09:48:44;;;;;;;24.92;19.65;;;;;;;;;;5032533;28;20499;-68
2021/12/30 09:51:11;;;;;;;26.85;20.02;;;;;;;;;;5032310;28;20108;-67
2021/12/30 09:53:37;;;;;;;29.13;20.27;;;;;;;;;;5032408;28;20037;-68
2021/12/30 09:56:04;;;;;;;25.88;18.42;;;;;;;;;;5032612;28;20380;-68
2021/12/30 09:58:30;;;;;;;28.70;21.20;;;;;;;;;;5032330;28;20029;-68
2021/12/30 10:00:57;;;;;;;26.90;21.02;;;333.20;2329.60;;;;;;5031211;28;20424;-67
2021/12/30 10:03:22;;;;;;;35.72;24.05;;;333.20;2329.60;;;;;;5032609;28;20033;-68
2021/12/30 10:05:48;;;;;;;29.45;20.95;;;333.20;2329.60;;;;;;5032659;28;20022;-67
2021/12/30 10:08:17;;;;;;;30.50;21.48;;;;;;;;;;5032468;28;20029;-67
2021/12/30 10:10:45;;;;;;;23.92;19.08;;;;;;;;;;5032149;28;20417;-68
2021/12/30 10:13:15;;;;;;;26.92;20.88;;;;;;;;;;5032140;28;20108;-67
2021/12/30 10:15:44;;;;;;;28.65;22.00;;;;;;;;;;5032198;28;20032;-68
2021/12/30 10:18:11;;;;;;;18.20;13.48;;;;;;;;;;5032296;28;20025;-66
2021/12/30 10:20:40;;;;;;;16.23;10.82;;;409.90;1843.20;;;;;;5032157;28;20022;-68
2021/12/30 10:23:10;;;;;;;14.77;12.13;;;;;;;;;;5030976;28;20025;-67
2021/12/30 10:25:40;;;;;;;28.23;22.17;;;;;;;;;;5032018;28;20035;-68
2021/12/30 10:28:25;;;;;;;16.50;14.73;;;359.10;2099.20;;;;;;5032351;28;20030;-67
2021/12/30 10:30:54;;;;;;;15.50;13.02;;;;;;;;;;5030896;28;20041;-67
2021/12/30 10:33:22;;;;;;;18.25;13.52;;;;;;;;;;5032135;28;20030;-67
2021/12/30 10:35:49;;;;;;;17.08;13.88;;;;;;;;;;5032040;28;20068;-68
2021/12/30 10:38:16;;;;;;;30.20;21.63;;;384.40;2124.80;;;;;;5032033;28;20029;-68
2021/12/30 10:40:47;;;;;;;38.03;26.65;;;;;;;;;;5032111;28;20100;-68
2021/12/30 10:43:13;;;;;;;139.10;72.40;;;;;;;;;;5032179;28;20049;-67
2021/12/30 10:45:40;;;;;;;20.88;15.43;;;;;;;;;;5031926;28;20034;-67
2021/12/30 10:48:08;;;;;;;16.85;13.15;;;;;;;;;;5031731;28;20151;-69
2021/12/30 10:50:34;;;;;;;21.75;17.25;;;;;;;;;;5032002;28;20492;-67
2021/12/30 10:53:00;;;;;;;22.40;17.98;;;;;;;;;;5035246;28;20037;-66
2021/12/30 10:55:26;;;;;;;18.25;15.07;;;;;;;;;;5035485;28;20107;-67
2021/12/30 10:57:52;;;;;;;12.75;10.80;;;;;;;;;;5035348;28;20476;-66
2021/12/30 11:00:29;;;;;;;15.13;12.48;;;;;;;;;;5035364;28;20041;-66
2021/12/30 11:02:55;;;;;;;20.13;14.93;;;;;;;;;;5035550;28;20036;-67
2021/12/30 11:05:21;;;;;;;13.55;11.23;;;;;;;;;;5035062;28;20029;-68
2021/12/30 11:07:48;;;;;;;14.48;11.43;;;;;;;;;;5035351;28;20034;-68
2021/12/30 11:10:16;;;;;;;15.20;12.10;;;;;;;;;;5035522;28;20526;-67
2021/12/30 11:12:44;;;;;;;24.73;19.13;;;;;;;;;;5034095;28;20037;-68
2021/12/30 11:15:23;;;;;;;17.42;14.60;;;;;;;;;;5035131;28;20451;-68
2021/12/30 11:17:50;;;;;;;22.17;18.25;;;;;;;;;;5035070;28;20032;-69
2021/12/30 11:20:19;;;;;;;26.17;19.63;;;512.90;1228.80;;;;;;5034810;28;20017;-69
2021/12/30 11:22:48;;;;;;;19.25;16.98;;;537.70;1254.40;;;;;;5035114;28;20569;-69
2021/12/30 11:25:16;;;;;;;29.90;23.77;;;;;;;;;;5035099;28;20026;-68
2021/12/30 11:27:42;;;;;;;31.17;25.83;;;538.50;1177.60;;;;;;5035014;28;20096;-69
2021/12/30 11:30:08;;;;;;;31.27;24.77;;;;;;;;;;5034721;28;20554;-68
2021/12/30 11:32:35;;;;;;;25.00;18.90;;;563.40;1203.20;;;;;;5034710;28;20460;-68
2021/12/30 11:35:03;;;;;;;20.95;14.48;;;563.60;1177.60;;;;;;5034763;28;20102;-68
2021/12/30 11:37:29;;;;;;;15.45;10.95;;;563.40;1177.60;;;;;;5034682;28;20497;-69
2021/12/30 11:39:58;;;;;;;23.77;15.50;;;537.90;1177.60;;;;;;5034820;28;20049;-71
2021/12/30 11:42:35;;;;;;;23.45;17.40;;;537.80;1228.80;;;;;;5034790;28;20032;-68
2021/12/30 11:45:03;;;;;;;22.92;17.48;;;537.60;1280.00;;;;;;5034582;28;20013;-68
2021/12/30 11:47:32;;;;;;;19.55;13.98;;;512.90;1228.80;;;;;;5034291;28;20033;-69
2021/12/30 11:50:10;;;;;;;21.27;14.10;;;;;;;;;;5034732;28;20021;-68
2021/12/30 11:52:55;;;;;;;37.75;18.75;;;;;;;;;;5034469;28;20037;-68
2021/12/30 11:55:39;;;;;;;29.77;19.35;;;;;;;;;;5034333;28;20021;-66
2021/12/30 11:58:24;;;;;;;42.55;22.73;;;;;;;;;;5034198;28;20597;-67
2021/12/30 12:00:51;;;;;;;24.95;15.88;;;;;;;;;;5034137;28;20073;-69
2021/12/30 12:03:39;;;;;;;24.77;16.63;;;512.90;1305.60;;;;;;5033841;28;20022;-65
2021/12/30 12:06:30;;;;;;;29.23;20.60;;;512.90;1254.40;;;;;;5034074;28;20025;-68
2021/12/30 12:08:57;;;;;;;23.80;16.73;;;;;;;;;;5032222;28;20032;-67
2021/12/30 12:11:25;;;;;;;26.42;20.77;;;;;;;;;;5031959;28;20038;-66
2021/12/30 12:13:54;;;;;;;21.85;14.98;;;;;;;;;;5031960;28;20140;-67
2021/12/30 12:16:38;;;;;;;53.92;26.45;;;;;;;;;;5031924;28;20021;-69
2021/12/30 12:19:09;;;;;;;49.70;19.77;;;436.10;1459.20;;;;;;5031736;28;20132;-68
2021/12/30 12:21:45;;;;;;;65.37;32.33;;;;;;;;;;5015085;28;20038;-69
2021/12/30 12:24:37;;;;;;;37.60;18.67;;;;;;;;;;5031826;28;20029;-70
2021/12/30 12:27:08;;;;;;;51.55;18.50;;;;;;;;;;5028203;28;20037;-68
2021/12/30 12:29:44;;;;;;;28.75;17.00;;;;;;;;;;5031476;28;20149;-68
2021/12/30 12:32:11;;;;;;;29.38;15.13;;;;;;;;;;5031318;28;20118;-69
2021/12/30 12:34:37;;;;;;;28.80;16.83;;;;;;;;;;5031604;28;20018;-70
2021/12/30 12:37:04;;;;;;;34.28;18.48;;;;;;;;;;5031676;28;20090;-68
2021/12/30 12:39:34;;;;;;;37.50;16.90;;;;;;;;;;5031409;28;20081;-68
2021/12/30 12:42:00;;;;;;;25.75;12.98;;;;;;;;;;5031239;28;20542;-66
2021/12/30 12:44:29;;;;;;;16.98;12.05;;;;;;;;;;5031462;28;20025;-67
2021/12/30 12:46:55;;;;;;;18.63;10.95;;;;;;;;;;5033537;28;20040;-68
2021/12/30 12:49:33;;;;;;;20.23;12.90;;;;;;;;;;5033504;28;20155;-67
2021/12/30 12:52:00;;;;;;;37.15;17.45;;;;;;;;;;5033194;28;20108;-66